createdAt,value
2019-05-19T00:00:42.146Z,50.76
2019-05-19T00:01:42.316Z,58.81
2019-05-19T00:02:42.485Z,56.40
2019-05-19T00:03:42.677Z,58.81
2019-05-19T00:04:42.848Z,54.30
2019-05-19T00:05:43.017Z,70.09
2019-05-19T00:06:43.174Z,59.14
2019-05-19T00:07:43.375Z,59.30
2019-05-19T00:08:43.517Z,49.15
2019-05-19T00:09:43.676Z,57.69
2019-05-19T00:10:43.876Z,60.59
2019-05-19T00:11:44.101Z,65.10
2019-05-19T00:12:44.274Z,60.59
2019-05-19T00:13:44.489Z,57.69
2019-05-19T00:15:18.042Z,45.60
2019-05-19T00:15:44.861Z,52.05
2019-05-19T00:16:45.055Z,54.95
2019-05-19T00:17:45.270Z,50.76
2019-05-19T00:18:45.466Z,50.27
2019-05-19T00:19:45.638Z,53.82
2019-05-19T00:20:45.834Z,60.59
2019-05-19T00:21:46.731Z,61.55
2019-05-19T00:22:46.760Z,46.89
2019-05-19T00:23:46.430Z,49.63
2019-05-19T00:24:46.613Z,60.10
2019-05-19T00:25:46.768Z,66.39
2019-05-19T00:26:46.927Z,57.69
2019-05-19T00:27:47.134Z,68.80
2019-05-19T00:28:47.333Z,62.04
2019-05-19T00:29:47.746Z,56.40
2019-05-19T00:30:47.652Z,56.24
2019-05-19T00:31:47.854Z,54.79
2019-05-19T00:32:47.954Z,46.89
2019-05-19T00:33:48.109Z,47.70
2019-05-19T00:34:48.754Z,58.01
2019-05-19T00:35:48.420Z,60.26
2019-05-19T00:36:48.608Z,45.60
2019-05-19T00:37:48.810Z,52.85
2019-05-19T00:38:49.009Z,57.04
2019-05-19T00:39:49.737Z,54.79
2019-05-19T00:40:50.390Z,52.53
2019-05-19T00:41:49.542Z,53.33
2019-05-19T00:42:49.712Z,56.88
2019-05-19T00:43:49.923Z,46.73
2019-05-19T00:44:50.241Z,49.79
2019-05-19T00:45:50.293Z,46.89
2019-05-19T00:46:50.492Z,45.76
2019-05-19T00:47:50.676Z,54.30
2019-05-19T00:48:50.879Z,69.29
2019-05-19T00:50:24.486Z,44.96
2019-05-19T00:50:51.258Z,46.41
2019-05-19T00:51:51.453Z,56.24
2019-05-19T00:52:51.656Z,47.53
2019-05-19T00:53:51.878Z,60.42
2019-05-19T00:54:52.008Z,46.08
2019-05-19T00:55:52.234Z,68.96
2019-05-19T00:56:52.410Z,45.44
2019-05-19T00:57:52.643Z,45.44
2019-05-19T00:58:53.781Z,44.15
2019-05-19T00:59:53.083Z,57.69
2019-05-19T01:00:53.273Z,52.69
2019-05-19T01:01:53.492Z,44.47
2019-05-19T01:02:53.680Z,51.72
2019-05-19T01:03:53.846Z,59.30
2019-05-19T01:04:54.023Z,45.92
2019-05-19T01:05:54.775Z,44.47
2019-05-19T01:06:54.790Z,72.99
2019-05-19T01:07:54.584Z,58.01
2019-05-19T01:08:54.748Z,48.82
2019-05-19T01:09:54.915Z,56.72
2019-05-19T01:10:55.137Z,46.08
2019-05-19T01:11:55.799Z,48.82
2019-05-19T01:12:55.427Z,45.44
2019-05-19T01:13:55.619Z,47.70
2019-05-19T01:14:55.753Z,54.14
2019-05-19T01:15:55.911Z,51.24
2019-05-19T01:16:56.291Z,54.79
2019-05-19T01:17:56.192Z,45.92
2019-05-19T01:18:56.361Z,47.21
2019-05-19T01:19:56.519Z,47.53
2019-05-19T01:20:56.705Z,60.10
2019-05-19T01:21:56.882Z,55.91
2019-05-19T01:22:57.291Z,47.53
2019-05-19T01:23:57.163Z,62.36
2019-05-19T01:25:30.710Z,58.49
2019-05-19T01:25:57.456Z,46.89
2019-05-19T01:26:57.600Z,53.01
2019-05-19T01:27:57.799Z,79.60
2019-05-19T01:28:57.965Z,58.65
2019-05-19T01:29:58.825Z,47.53
2019-05-19T01:30:58.820Z,76.86
2019-05-19T01:31:58.497Z,47.37
2019-05-19T01:32:58.657Z,54.30
2019-05-19T01:33:59.876Z,46.57
2019-05-19T01:34:59.054Z,78.15
2019-05-19T01:35:59.822Z,52.69
2019-05-19T01:37:00.315Z,53.66
2019-05-19T01:37:59.720Z,58.33
2019-05-19T01:38:59.881Z,46.41
2019-05-19T01:40:00.028Z,46.89
2019-05-19T01:41:00.203Z,58.01
2019-05-19T01:42:00.394Z,60.59
2019-05-19T01:43:00.834Z,51.08
2019-05-19T01:44:00.733Z,47.86
2019-05-19T01:45:00.896Z,47.05
2019-05-19T01:46:01.060Z,46.41
2019-05-19T01:47:01.221Z,50.27
2019-05-19T01:48:01.504Z,51.56
2019-05-19T01:49:01.676Z,45.28
2019-05-19T01:50:16.914Z,44.63
2019-05-19T01:51:04.814Z,59.78
2019-05-19T01:52:02.162Z,46.25
2019-05-19T01:53:02.348Z,44.63
2019-05-19T01:54:02.510Z,44.63
2019-05-19T01:55:03.320Z,44.47
2019-05-19T01:56:02.813Z,44.96
2019-05-19T01:57:03.819Z,44.63
2019-05-19T01:58:03.252Z,46.25
2019-05-19T01:59:03.403Z,44.79
2019-05-19T02:00:03.623Z,50.60
2019-05-19T02:01:04.341Z,45.12
2019-05-19T02:02:04.830Z,54.62
2019-05-19T02:03:04.343Z,48.66
2019-05-19T02:04:04.395Z,71.70
2019-05-19T02:05:05.345Z,60.26
2019-05-19T02:06:04.709Z,62.52
2019-05-19T02:07:04.872Z,49.15
2019-05-19T02:08:05.335Z,45.28
2019-05-19T02:09:05.295Z,57.85
2019-05-19T02:10:06.315Z,54.14
2019-05-19T02:11:06.321Z,45.92
2019-05-19T02:12:06.316Z,58.17
2019-05-19T02:13:05.809Z,46.08
2019-05-19T02:14:06.835Z,48.34
2019-05-19T02:15:06.099Z,72.19
2019-05-19T02:16:06.260Z,50.92
2019-05-19T02:17:06.450Z,47.21
2019-05-19T02:18:06.612Z,47.37
2019-05-19T02:19:06.796Z,47.70
2019-05-19T02:20:07.814Z,48.50
2019-05-19T02:21:07.075Z,47.21
2019-05-19T02:22:07.237Z,47.86
2019-05-19T02:23:08.330Z,59.14
2019-05-19T02:24:07.629Z,51.88
2019-05-19T02:25:07.800Z,50.43
2019-05-19T02:26:07.977Z,48.82
2019-05-19T02:27:08.143Z,51.24
2019-05-19T02:28:08.318Z,62.20
2019-05-19T02:29:08.545Z,60.10
2019-05-19T02:30:08.740Z,59.30
2019-05-19T02:31:08.928Z,63.00
2019-05-19T02:32:09.099Z,62.36
2019-05-19T02:33:09.252Z,58.81
2019-05-19T02:34:09.454Z,60.26
2019-05-19T02:35:10.329Z,60.10
2019-05-19T02:36:09.863Z,61.23
2019-05-19T02:37:10.341Z,57.36
2019-05-19T02:38:10.815Z,66.87
2019-05-19T02:39:11.340Z,65.74
2019-05-19T02:40:10.647Z,66.71
2019-05-19T02:41:10.857Z,68.64
2019-05-19T02:42:11.827Z,99.26
2019-05-19T02:43:11.236Z,102.80
2019-05-19T02:44:11.407Z,104.41
2019-05-19T02:45:11.569Z,83.79
2019-05-19T02:46:11.757Z,63.65
2019-05-19T02:47:12.817Z,63.00
2019-05-19T02:48:12.071Z,63.33
2019-05-19T02:49:12.245Z,63.33
2019-05-19T02:50:12.435Z,63.16
2019-05-19T02:51:12.632Z,67.84
2019-05-19T02:52:12.810Z,64.13
2019-05-19T02:53:13.003Z,64.29
2019-05-19T02:54:13.204Z,63.97
2019-05-19T02:55:14.382Z,64.61
2019-05-19T02:56:13.553Z,64.29
2019-05-19T02:57:13.720Z,64.78
2019-05-19T02:58:13.893Z,63.97
2019-05-19T02:59:14.064Z,66.23
2019-05-19T03:00:14.267Z,82.18
2019-05-19T03:01:14.837Z,83.95
2019-05-19T03:02:14.624Z,62.68
2019-05-19T03:03:14.825Z,63.97
2019-05-19T03:04:15.045Z,62.68
2019-05-19T03:05:15.204Z,63.33
2019-05-19T03:06:15.377Z,63.81
2019-05-19T03:07:15.872Z,61.39
2019-05-19T03:08:15.759Z,61.55
2019-05-19T03:09:15.892Z,61.87
2019-05-19T03:10:16.039Z,61.55
2019-05-19T03:11:16.824Z,71.87
2019-05-19T03:12:16.380Z,61.71
2019-05-19T03:13:16.554Z,64.78
2019-05-19T03:14:16.742Z,65.26
2019-05-19T03:15:16.899Z,64.61
2019-05-19T03:16:17.092Z,65.90
2019-05-19T03:17:17.335Z,63.81
2019-05-19T03:18:17.380Z,62.36
2019-05-19T03:19:17.556Z,60.91
2019-05-19T03:20:17.720Z,63.81
2019-05-19T03:21:17.915Z,63.00
2019-05-19T03:22:18.101Z,54.62
2019-05-19T03:23:18.262Z,69.45
2019-05-19T03:24:19.413Z,55.11
2019-05-19T03:25:18.545Z,64.29
2019-05-19T03:26:18.695Z,64.45
2019-05-19T03:27:18.898Z,63.81
2019-05-19T03:28:19.066Z,81.69
2019-05-19T03:29:19.256Z,61.71
2019-05-19T03:30:20.339Z,58.97
2019-05-19T03:31:19.638Z,63.00
2019-05-19T03:32:19.871Z,50.76
2019-05-19T03:33:20.107Z,68.16
2019-05-19T03:34:20.289Z,66.55
2019-05-19T03:35:20.445Z,66.55
2019-05-19T03:36:21.340Z,64.29
2019-05-19T03:37:20.848Z,57.52
2019-05-19T03:38:21.060Z,62.36
2019-05-19T03:39:21.216Z,63.65
2019-05-19T03:40:21.387Z,59.62
2019-05-19T03:41:22.330Z,55.43
2019-05-19T03:42:21.755Z,59.78
2019-05-19T03:43:21.963Z,54.95
2019-05-19T03:44:22.163Z,55.59
2019-05-19T03:45:23.362Z,56.88
2019-05-19T03:46:22.574Z,61.39
2019-05-19T03:47:22.603Z,61.71
2019-05-19T03:48:22.806Z,55.59
2019-05-19T03:49:23.353Z,56.56
2019-05-19T03:50:23.163Z,57.52
2019-05-19T03:51:30.993Z,58.49
2019-05-19T03:52:25.491Z,55.11
2019-05-19T03:53:24.358Z,57.85
2019-05-19T03:54:23.769Z,56.72
2019-05-19T03:55:23.950Z,60.59
2019-05-19T03:56:24.146Z,54.14
2019-05-19T03:57:24.834Z,63.00
2019-05-19T03:58:24.536Z,49.31
2019-05-19T03:59:25.351Z,58.33
2019-05-19T04:00:24.897Z,56.56
2019-05-19T04:01:25.086Z,59.62
2019-05-19T04:02:25.237Z,58.97
2019-05-19T04:03:25.402Z,54.79
2019-05-19T04:04:25.597Z,51.88
2019-05-19T04:05:26.356Z,50.60
2019-05-19T04:06:25.877Z,57.04
2019-05-19T04:07:26.850Z,67.35
2019-05-19T04:08:26.282Z,62.20
2019-05-19T04:09:26.395Z,70.74
2019-05-19T04:10:26.690Z,75.09
2019-05-19T04:11:26.843Z,78.96
2019-05-19T04:12:27.024Z,75.89
2019-05-19T04:13:27.184Z,58.01
2019-05-19T04:14:27.374Z,50.76
2019-05-19T04:15:28.346Z,57.52
2019-05-19T04:16:27.739Z,58.97
2019-05-19T04:17:27.899Z,61.39
2019-05-19T04:18:28.852Z,57.69
2019-05-19T04:19:28.284Z,56.40
2019-05-19T04:20:28.479Z,63.33
2019-05-19T04:21:38.796Z,65.74
2019-05-19T04:22:29.816Z,64.13
2019-05-19T04:23:28.935Z,70.58
2019-05-19T04:24:29.121Z,76.38
2019-05-19T04:25:29.265Z,62.36
2019-05-19T04:26:29.399Z,59.94
2019-05-19T04:27:29.542Z,57.69
2019-05-19T04:28:29.694Z,59.94
2019-05-19T04:29:29.874Z,63.97
2019-05-19T04:30:30.029Z,54.30
2019-05-19T04:31:30.166Z,51.08
2019-05-19T04:32:30.320Z,58.49
2019-05-19T04:33:30.454Z,60.75
2019-05-19T04:34:30.595Z,56.24
2019-05-19T04:35:30.745Z,55.91
2019-05-19T04:36:31.009Z,48.50
2019-05-19T04:37:31.045Z,53.82
2019-05-19T04:38:31.180Z,54.62
2019-05-19T04:39:31.842Z,55.27
2019-05-19T04:40:31.489Z,50.11
2019-05-19T04:41:31.635Z,49.47
2019-05-19T04:42:31.762Z,51.72
2019-05-19T04:43:33.360Z,50.27
2019-05-19T04:44:32.107Z,50.60
2019-05-19T04:45:32.284Z,53.66
2019-05-19T04:46:32.441Z,53.01
2019-05-19T04:47:33.392Z,52.53
2019-05-19T04:48:32.775Z,62.04
2019-05-19T04:49:32.929Z,62.04
2019-05-19T04:50:33.122Z,63.49
2019-05-19T04:51:33.308Z,60.42
2019-05-19T04:52:33.455Z,57.36
2019-05-19T04:53:33.597Z,60.26
2019-05-19T04:54:33.770Z,61.07
2019-05-19T04:55:33.926Z,59.30
2019-05-19T04:56:34.084Z,53.33
2019-05-19T04:57:34.853Z,55.27
2019-05-19T04:58:34.370Z,55.43
2019-05-19T04:59:34.552Z,50.92
2019-05-19T05:00:34.708Z,52.05
2019-05-19T05:01:35.357Z,49.95
2019-05-19T05:02:35.356Z,60.59
2019-05-19T05:03:35.159Z,60.42
2019-05-19T05:04:35.877Z,51.88
2019-05-19T05:05:36.362Z,57.36
2019-05-19T05:06:35.752Z,54.79
2019-05-19T05:07:36.370Z,52.05
2019-05-19T05:08:36.855Z,53.17
2019-05-19T05:09:36.386Z,62.84
2019-05-19T05:10:37.357Z,63.65
2019-05-19T05:11:36.791Z,57.36
2019-05-19T05:12:37.378Z,72.83
2019-05-19T05:13:37.867Z,61.23
2019-05-19T05:14:37.354Z,58.17
2019-05-19T05:15:37.529Z,55.91
2019-05-19T05:16:37.656Z,57.52
2019-05-19T05:17:37.861Z,51.24
2019-05-19T05:18:38.845Z,57.04
2019-05-19T05:19:38.224Z,52.37
2019-05-19T05:20:38.379Z,71.87
2019-05-19T05:21:39.352Z,51.40
2019-05-19T05:22:38.777Z,61.55
2019-05-19T05:23:38.926Z,55.43
2019-05-19T05:24:39.115Z,52.85
2019-05-19T05:25:39.287Z,49.31
2019-05-19T05:26:39.458Z,61.87
2019-05-19T05:27:39.644Z,50.11
2019-05-19T05:28:39.820Z,56.07
2019-05-19T05:29:40.038Z,63.65
2019-05-19T05:30:40.187Z,64.13
2019-05-19T05:31:40.345Z,53.82
2019-05-19T05:32:40.505Z,52.69
2019-05-19T05:33:40.697Z,58.81
2019-05-19T05:34:40.853Z,72.67
2019-05-19T05:35:41.006Z,53.50
2019-05-19T05:36:41.170Z,60.10
2019-05-19T05:37:41.337Z,56.24
2019-05-19T05:38:41.534Z,58.17
2019-05-19T05:39:41.702Z,59.62
2019-05-19T05:40:41.871Z,56.24
2019-05-19T05:41:42.052Z,57.20
2019-05-19T05:42:42.215Z,55.11
2019-05-19T05:43:42.404Z,70.42
2019-05-19T05:44:42.545Z,69.13
2019-05-19T05:45:43.358Z,72.19
2019-05-19T05:46:43.846Z,57.85
2019-05-19T05:47:43.855Z,57.85
2019-05-19T05:48:43.373Z,58.81
2019-05-19T05:49:43.408Z,58.65
2019-05-19T05:50:43.579Z,64.29
2019-05-19T05:51:43.777Z,71.06
2019-05-19T05:52:44.379Z,50.43
2019-05-19T05:53:44.184Z,55.43
2019-05-19T05:54:44.363Z,59.62
2019-05-19T05:55:44.568Z,64.13
2019-05-19T05:56:44.744Z,61.71
2019-05-19T05:57:44.957Z,56.56
2019-05-19T05:58:45.146Z,72.99
2019-05-19T05:59:45.343Z,62.20
2019-05-19T06:00:45.504Z,58.17
2019-05-19T06:01:45.680Z,81.05
2019-05-19T06:02:45.887Z,69.29
2019-05-19T06:04:19.450Z,72.51
2019-05-19T06:04:46.226Z,63.49
2019-05-19T06:05:46.416Z,55.75
2019-05-19T06:06:46.605Z,55.27
2019-05-19T06:07:46.819Z,59.78
2019-05-19T06:08:46.989Z,75.57
2019-05-19T06:09:47.173Z,72.35
2019-05-19T06:10:47.354Z,73.80
2019-05-19T06:11:48.385Z,57.52
2019-05-19T06:12:47.703Z,61.07
2019-05-19T06:13:49.754Z,57.69
2019-05-19T06:14:49.124Z,57.52
2019-05-19T06:15:48.286Z,57.85
2019-05-19T06:16:49.408Z,56.24
2019-05-19T06:17:48.710Z,56.40
2019-05-19T06:18:48.891Z,52.85
2019-05-19T06:19:49.126Z,58.33
2019-05-19T06:20:49.313Z,58.49
2019-05-19T06:21:49.508Z,74.77
2019-05-19T06:22:56.409Z,70.90
2019-05-19T06:23:51.803Z,58.81
2019-05-19T06:24:50.074Z,57.52
2019-05-19T06:25:50.277Z,58.81
2019-05-19T06:26:50.474Z,67.19
2019-05-19T06:27:51.665Z,62.36
2019-05-19T06:28:50.845Z,60.75
2019-05-19T06:29:51.007Z,56.07
2019-05-19T06:30:51.255Z,57.20
2019-05-19T06:31:51.325Z,67.68
2019-05-19T06:32:52.400Z,57.69
2019-05-19T06:33:51.686Z,53.17
2019-05-19T06:34:52.877Z,56.07
2019-05-19T06:35:52.071Z,57.36
2019-05-19T06:36:54.980Z,71.22
2019-05-19T06:37:52.462Z,62.68
2019-05-19T06:38:52.665Z,57.52
2019-05-19T06:39:52.864Z,53.01
2019-05-19T06:40:53.100Z,60.42
2019-05-19T06:41:53.902Z,63.97
2019-05-19T06:42:53.495Z,62.52
2019-05-19T06:43:54.403Z,58.81
2019-05-19T06:44:53.683Z,58.01
2019-05-19T06:45:53.887Z,57.69
2019-05-19T06:46:54.055Z,61.55
2019-05-19T06:47:54.228Z,64.13
2019-05-19T06:48:54.420Z,60.10
2019-05-19T06:49:54.583Z,63.16
2019-05-19T06:50:54.790Z,61.71
2019-05-19T06:51:54.982Z,59.14
2019-05-19T06:53:11.178Z,62.36
2019-05-19T06:53:56.305Z,64.94
2019-05-19T06:54:55.489Z,64.94
2019-05-19T06:55:55.694Z,74.44
2019-05-19T06:56:55.896Z,64.45
2019-05-19T06:57:56.090Z,66.71
2019-05-19T06:58:56.260Z,57.85
2019-05-19T06:59:56.443Z,51.56
2019-05-19T07:00:59.125Z,69.29
2019-05-19T07:01:56.840Z,70.09
2019-05-19T07:02:56.973Z,57.04
2019-05-19T07:03:57.139Z,60.10
2019-05-19T07:04:57.285Z,58.49
2019-05-19T07:05:57.434Z,60.10
2019-05-19T07:06:57.617Z,59.30
2019-05-19T07:07:57.923Z,61.39
2019-05-19T07:08:57.984Z,65.90
2019-05-19T07:09:59.170Z,61.39
2019-05-19T07:10:58.298Z,61.39
2019-05-19T07:11:58.451Z,60.10
2019-05-19T07:12:58.648Z,62.52
2019-05-19T07:14:02.610Z,78.15
2019-05-19T07:14:59.899Z,66.55
2019-05-19T07:15:59.181Z,56.24
2019-05-19T07:16:59.342Z,61.87
2019-05-19T07:17:59.532Z,56.88
2019-05-19T07:18:59.696Z,76.22
2019-05-19T07:19:59.877Z,57.36
2019-05-19T07:21:00.075Z,68.96
2019-05-19T07:22:00.246Z,53.98
2019-05-19T07:23:00.411Z,76.22
2019-05-19T07:24:00.629Z,66.55
2019-05-19T07:25:00.772Z,60.59
2019-05-19T07:26:00.962Z,68.64
2019-05-19T07:27:01.116Z,58.01
2019-05-19T07:28:01.267Z,58.65
2019-05-19T07:29:01.436Z,55.27
2019-05-19T07:30:01.581Z,59.14
2019-05-19T07:31:01.836Z,63.00
2019-05-19T07:32:01.973Z,61.39
2019-05-19T07:33:02.055Z,59.30
2019-05-19T07:34:02.299Z,72.83
2019-05-19T07:35:02.414Z,57.04
2019-05-19T07:36:03.414Z,54.30
2019-05-19T07:37:03.414Z,60.10
2019-05-19T07:38:02.983Z,59.94
2019-05-19T07:39:03.180Z,55.91
2019-05-19T07:40:03.405Z,59.30
2019-05-19T07:41:03.482Z,61.55
2019-05-19T07:42:04.410Z,66.39
2019-05-19T07:43:03.807Z,61.23
2019-05-19T07:44:04.022Z,56.40
2019-05-19T07:45:04.251Z,70.90
2019-05-19T07:46:04.444Z,60.26
2019-05-19T07:47:04.633Z,61.55
2019-05-19T07:48:04.820Z,59.30
2019-05-19T07:49:05.039Z,54.14
2019-05-19T07:50:05.297Z,69.45
2019-05-19T07:51:05.502Z,67.68
2019-05-19T07:52:05.705Z,57.52
2019-05-19T07:53:06.440Z,59.30
2019-05-19T07:54:05.983Z,66.55
2019-05-19T07:55:07.022Z,58.33
2019-05-19T07:56:06.432Z,58.65
2019-05-19T07:57:06.483Z,73.96
2019-05-19T07:58:06.665Z,67.84
2019-05-19T07:59:08.145Z,71.06
2019-05-19T08:00:08.203Z,73.64
2019-05-19T08:01:07.165Z,66.39
2019-05-19T08:02:07.359Z,56.40
2019-05-19T08:03:07.563Z,61.07
2019-05-19T08:04:07.791Z,71.38
2019-05-19T08:05:08.949Z,62.84
2019-05-19T08:06:08.144Z,66.55
2019-05-19T08:07:08.348Z,66.23
2019-05-19T08:08:08.536Z,60.10
2019-05-19T08:09:08.729Z,57.52
2019-05-19T08:10:08.947Z,67.19
2019-05-19T08:11:09.134Z,69.93
2019-05-19T08:12:09.331Z,60.26
2019-05-19T08:13:10.433Z,56.56
2019-05-19T08:14:09.703Z,57.20
2019-05-19T08:15:09.897Z,61.39
2019-05-19T08:16:10.096Z,59.14
2019-05-19T08:17:10.301Z,64.61
2019-05-19T08:18:10.511Z,62.04
2019-05-19T08:19:10.682Z,55.91
2019-05-19T08:20:10.862Z,67.03
2019-05-19T08:21:11.025Z,68.48
2019-05-19T08:22:11.231Z,66.06
2019-05-19T08:23:11.432Z,56.07
2019-05-19T08:24:11.634Z,54.62
2019-05-19T08:25:12.434Z,58.49
2019-05-19T08:26:11.983Z,54.95
2019-05-19T08:27:12.220Z,53.33
2019-05-19T08:28:12.439Z,64.94
2019-05-19T08:29:13.638Z,75.25
2019-05-19T08:30:12.807Z,61.07
2019-05-19T08:31:13.950Z,57.36
2019-05-19T08:32:13.256Z,59.78
2019-05-19T08:33:14.433Z,59.78
2019-05-19T08:34:14.469Z,65.10
2019-05-19T08:35:13.873Z,63.00
2019-05-19T08:36:14.073Z,71.87
2019-05-19T08:37:14.288Z,68.00
2019-05-19T08:38:14.499Z,63.97
2019-05-19T08:39:14.671Z,70.58
2019-05-19T08:40:14.828Z,60.59
2019-05-19T08:41:14.997Z,62.20
2019-05-19T08:42:15.161Z,65.10
2019-05-19T08:43:15.362Z,61.55
2019-05-19T08:44:15.563Z,62.36
2019-05-19T08:45:15.733Z,62.20
2019-05-19T08:46:15.962Z,71.22
2019-05-19T08:47:16.135Z,58.01
2019-05-19T08:48:16.359Z,68.64
2019-05-19T08:49:16.553Z,63.65
2019-05-19T08:50:16.722Z,61.55
2019-05-19T08:51:16.924Z,59.14
2019-05-19T08:52:17.102Z,61.07
2019-05-19T08:53:17.276Z,60.26
2019-05-19T08:54:19.036Z,62.68
2019-05-19T08:55:18.686Z,57.69
2019-05-19T08:56:17.856Z,66.06
2019-05-19T08:57:18.076Z,63.97
2019-05-19T08:58:18.320Z,63.49
2019-05-19T08:59:18.457Z,65.58
2019-05-19T09:00:18.547Z,63.49
2019-05-19T09:01:18.766Z,65.42
2019-05-19T09:02:18.992Z,66.23
2019-05-19T09:03:19.202Z,65.90
2019-05-19T09:04:19.445Z,65.58
2019-05-19T09:05:20.441Z,64.45
2019-05-19T09:06:38.747Z,63.81
2019-05-19T09:07:20.030Z,63.65
2019-05-19T09:08:20.222Z,74.28
2019-05-19T09:09:20.434Z,64.29
2019-05-19T09:10:21.458Z,62.68
2019-05-19T09:11:20.882Z,56.07
2019-05-19T09:12:21.048Z,62.20
2019-05-19T09:13:21.213Z,69.45
2019-05-19T09:14:21.461Z,74.44
2019-05-19T09:15:22.465Z,57.69
2019-05-19T09:16:21.902Z,71.38
2019-05-19T09:17:22.963Z,58.97
2019-05-19T09:18:22.253Z,68.96
2019-05-19T09:19:22.442Z,55.27
2019-05-19T09:20:22.595Z,64.29
2019-05-19T09:21:22.794Z,60.26
2019-05-19T09:22:23.958Z,67.03
2019-05-19T09:23:23.958Z,63.49
2019-05-19T09:24:30.639Z,63.00
2019-05-19T09:25:25.393Z,56.88
2019-05-19T09:26:24.458Z,61.07
2019-05-19T09:27:24.465Z,63.16
2019-05-19T09:28:23.886Z,58.33
2019-05-19T09:29:24.485Z,62.84
2019-05-19T09:30:24.291Z,55.27
2019-05-19T09:31:24.520Z,54.30
2019-05-19T09:32:24.752Z,63.65
2019-05-19T09:33:24.960Z,62.20
2019-05-19T09:34:25.159Z,59.30
2019-05-19T09:35:25.347Z,57.04
2019-05-19T09:36:25.551Z,61.07
2019-05-19T09:37:25.719Z,61.55
2019-05-19T09:38:26.459Z,65.42
2019-05-19T09:39:26.122Z,68.80
2019-05-19T09:40:26.854Z,65.10
2019-05-19T09:41:27.480Z,57.04
2019-05-19T09:42:26.623Z,58.65
2019-05-19T09:43:26.817Z,63.00
2019-05-19T09:44:27.005Z,56.40
2019-05-19T09:45:27.213Z,57.52
2019-05-19T09:46:27.326Z,82.34
2019-05-19T09:47:27.528Z,72.35
2019-05-19T09:48:27.747Z,59.62
2019-05-19T09:49:28.458Z,64.78
2019-05-19T09:50:28.104Z,66.06
2019-05-19T09:51:28.475Z,64.94
2019-05-19T09:52:28.511Z,68.48
2019-05-19T09:53:28.702Z,70.90
2019-05-19T09:54:29.473Z,70.25
2019-05-19T09:55:29.964Z,67.19
2019-05-19T09:56:29.240Z,66.39
2019-05-19T09:57:30.416Z,68.48
2019-05-19T09:58:29.543Z,60.75
2019-05-19T09:59:29.701Z,61.23
2019-05-19T10:00:29.897Z,63.16
2019-05-19T10:01:30.053Z,61.55
2019-05-19T10:02:30.228Z,65.74
2019-05-19T10:03:30.404Z,64.13
2019-05-19T10:04:31.472Z,80.41
2019-05-19T10:05:30.756Z,65.74
2019-05-19T10:06:30.925Z,62.20
2019-05-19T10:07:31.123Z,62.20
2019-05-19T10:08:31.270Z,71.38
2019-05-19T10:09:31.430Z,65.90
2019-05-19T10:10:31.591Z,65.90
2019-05-19T10:11:32.822Z,66.23
2019-05-19T10:12:31.998Z,62.36
2019-05-19T10:13:32.158Z,68.96
2019-05-19T10:14:32.983Z,72.51
2019-05-19T10:15:32.489Z,60.26
2019-05-19T10:16:32.653Z,81.05
2019-05-19T10:17:33.035Z,63.81
2019-05-19T10:18:33.057Z,63.33
2019-05-19T10:19:33.200Z,74.77
2019-05-19T10:20:33.360Z,68.00
2019-05-19T10:21:33.538Z,65.74
2019-05-19T10:22:34.022Z,72.83
2019-05-19T10:23:34.484Z,63.16
2019-05-19T10:24:34.086Z,54.95
2019-05-19T10:25:34.282Z,62.84
2019-05-19T10:26:34.467Z,57.04
2019-05-19T10:27:34.695Z,52.69
2019-05-19T10:28:34.884Z,60.91
2019-05-19T10:29:35.061Z,54.46
2019-05-19T10:30:35.264Z,60.75
2019-05-19T10:31:35.486Z,68.32
2019-05-19T10:32:35.680Z,52.69
2019-05-19T10:33:35.866Z,65.42
2019-05-19T10:34:36.021Z,55.59
2019-05-19T10:35:36.211Z,61.39
2019-05-19T10:36:36.433Z,61.71
2019-05-19T10:37:36.616Z,62.20
2019-05-19T10:38:36.749Z,53.98
2019-05-19T10:39:36.932Z,55.91
2019-05-19T10:40:37.104Z,55.11
2019-05-19T10:41:37.273Z,56.88
2019-05-19T10:42:37.472Z,62.84
2019-05-19T10:43:37.691Z,61.07
2019-05-19T10:44:37.868Z,59.94
2019-05-19T10:45:38.492Z,61.39
2019-05-19T10:46:38.313Z,60.91
2019-05-19T10:47:38.428Z,57.20
2019-05-19T10:48:38.707Z,66.39
2019-05-19T10:49:38.923Z,62.84
2019-05-19T10:50:40.005Z,62.20
2019-05-19T10:51:39.278Z,63.00
2019-05-19T10:52:39.466Z,65.90
2019-05-19T10:53:39.649Z,64.45
2019-05-19T10:54:39.927Z,63.16
2019-05-19T10:55:40.510Z,59.78
2019-05-19T10:56:40.153Z,64.13
2019-05-19T10:57:40.342Z,69.77
2019-05-19T10:58:40.540Z,63.97
2019-05-19T10:59:40.709Z,67.03
2019-05-19T11:00:40.908Z,61.55
2019-05-19T11:01:41.107Z,62.20
2019-05-19T11:02:41.293Z,66.55
2019-05-19T11:03:41.503Z,64.13
2019-05-19T11:04:42.006Z,56.56
2019-05-19T11:05:41.787Z,69.77
2019-05-19T11:06:41.982Z,84.59
2019-05-19T11:07:42.996Z,71.38
2019-05-19T11:08:42.283Z,59.30
2019-05-19T11:09:43.476Z,66.71
2019-05-19T11:10:42.641Z,63.97
2019-05-19T11:11:42.796Z,58.17
2019-05-19T11:12:46.716Z,63.16
2019-05-19T11:13:43.996Z,57.52
2019-05-19T11:14:43.406Z,62.36
2019-05-19T11:15:43.572Z,58.65
2019-05-19T11:16:43.704Z,52.85
2019-05-19T11:17:43.857Z,59.94
2019-05-19T11:18:44.018Z,65.10
2019-05-19T11:19:44.154Z,61.07
2019-05-19T11:20:44.296Z,60.75
2019-05-19T11:21:45.036Z,60.42
2019-05-19T11:22:44.557Z,68.32
2019-05-19T11:23:44.678Z,62.52
2019-05-19T11:24:44.911Z,65.90
2019-05-19T11:25:51.571Z,64.13
2019-05-19T11:26:47.211Z,69.61
2019-05-19T11:27:45.424Z,71.06
2019-05-19T11:28:45.553Z,74.77
2019-05-19T11:29:45.673Z,75.25
2019-05-19T11:30:45.829Z,73.96
2019-05-19T11:31:45.926Z,77.02
2019-05-19T11:32:46.522Z,77.99
2019-05-19T11:33:47.021Z,74.77
2019-05-19T11:34:47.019Z,81.37
2019-05-19T11:35:46.543Z,58.81
2019-05-19T11:36:46.714Z,58.65
2019-05-19T11:37:46.910Z,59.30
2019-05-19T11:38:47.064Z,66.71
2019-05-19T11:39:47.246Z,73.32
2019-05-19T11:40:47.398Z,61.39
2019-05-19T11:41:47.578Z,57.52
2019-05-19T11:42:47.745Z,68.64
2019-05-19T11:43:47.907Z,66.71
2019-05-19T11:44:48.043Z,59.94
2019-05-19T11:45:49.034Z,64.61
2019-05-19T11:46:48.413Z,63.49
2019-05-19T11:47:48.594Z,74.12
2019-05-19T11:48:48.733Z,73.15
2019-05-19T11:49:48.900Z,72.99
2019-05-19T11:50:50.025Z,83.47
2019-05-19T11:51:49.286Z,70.25
2019-05-19T11:52:49.475Z,73.32
2019-05-19T11:53:49.677Z,75.09
2019-05-19T11:54:49.857Z,77.18
2019-05-19T11:55:50.020Z,75.89
2019-05-19T11:56:50.187Z,80.08
2019-05-19T11:57:51.020Z,81.69
2019-05-19T11:58:50.546Z,81.53
2019-05-19T11:59:50.716Z,82.18
2019-05-19T12:00:50.862Z,80.08
2019-05-19T12:01:51.009Z,81.21
2019-05-19T12:02:51.166Z,81.53
2019-05-19T12:03:51.393Z,79.12
2019-05-19T12:04:51.546Z,75.73
2019-05-19T12:05:51.689Z,74.93
2019-05-19T12:06:52.514Z,79.12
2019-05-19T12:07:52.038Z,81.21
2019-05-19T12:08:52.248Z,80.89
2019-05-19T12:09:52.407Z,85.40
2019-05-19T12:10:53.530Z,90.72
2019-05-19T12:11:52.809Z,74.28
2019-05-19T12:12:53.047Z,97.16
2019-05-19T12:13:53.235Z,75.41
2019-05-19T12:14:53.410Z,75.41
2019-05-19T12:15:54.538Z,73.15
2019-05-19T12:16:54.571Z,79.12
2019-05-19T12:17:54.005Z,79.92
2019-05-19T12:18:57.454Z,79.28
2019-05-19T12:19:54.421Z,74.44
2019-05-19T12:20:55.521Z,77.18
2019-05-19T12:21:55.034Z,72.03
2019-05-19T12:22:54.957Z,70.42
2019-05-19T12:23:55.127Z,74.28
2019-05-19T12:24:55.322Z,72.83
2019-05-19T12:25:55.497Z,82.66
2019-05-19T12:26:55.677Z,78.63
2019-05-19T12:28:28.960Z,72.51
2019-05-19T12:28:56.075Z,97.97
2019-05-19T12:29:56.267Z,81.05
2019-05-19T12:30:56.436Z,81.86
2019-05-19T12:31:56.610Z,78.96
2019-05-19T12:32:59.355Z,88.62
2019-05-19T12:33:58.003Z,73.80
2019-05-19T12:34:57.580Z,75.89
2019-05-19T12:35:57.590Z,84.43
2019-05-19T12:36:57.632Z,79.28
2019-05-19T12:37:58.582Z,78.31
2019-05-19T12:38:58.583Z,80.24
2019-05-19T12:39:58.102Z,84.11
2019-05-19T12:40:58.585Z,89.27
2019-05-19T12:41:58.491Z,80.08
2019-05-19T12:42:58.650Z,92.49
2019-05-19T12:43:58.808Z,71.06
2019-05-19T12:44:58.984Z,78.31
2019-05-19T12:45:59.211Z,75.25
2019-05-19T12:46:59.298Z,72.19
2019-05-19T12:48:00.068Z,77.18
2019-05-19T12:49:00.615Z,73.48
2019-05-19T12:50:00.572Z,80.89
2019-05-19T12:51:00.099Z,77.99
2019-05-19T12:52:00.151Z,81.37
2019-05-19T12:53:01.125Z,74.44
2019-05-19T12:54:01.192Z,71.38
2019-05-19T12:55:01.595Z,80.41